sensor_id;sensor_type;location;lat;lon;timestamp;temperature;humidity
7174;DHT22;3628;48.654;8.932;2023-04-24T00:01:27;10.50;99.90
7174;DHT22;3628;48.654;8.932;2023-04-24T00:03:55;10.60;99.90
7174;DHT22;3628;48.654;8.932;2023-04-24T00:06:21;10.50;99.90
7174;DHT22;3628;48.654;8.932;2023-04-24T00:08:48;10.60;99.90
7174;DHT22;3628;48.654;8.932;2023-04-24T00:11:14;10.50;99.90
7174;DHT22;3628;48.654;8.932;2023-04-24T00:13:40;10.60;99.90
7174;DHT22;3628;48.654;8.932;2023-04-24T00:16:05;10.60;99.90
7174;DHT22;3628;48.654;8.932;2023-04-24T00:18:31;10.60;99.90
7174;DHT22;3628;48.654;8.932;2023-04-24T00:20:57;10.60;99.90
7174;DHT22;3628;48.654;8.932;2023-04-24T00:23:22;10.60;99.90
7174;DHT22;3628;48.654;8.932;2023-04-24T00:25:48;10.70;99.90
7174;DHT22;3628;48.654;8.932;2023-04-24T00:28:13;10.60;99.90
7174;DHT22;3628;48.654;8.932;2023-04-24T00:30:39;10.70;99.90
7174;DHT22;3628;48.654;8.932;2023-04-24T00:33:05;10.60;99.90
7174;DHT22;3628;48.654;8.932;2023-04-24T00:35:30;10.60;99.90
7174;DHT22;3628;48.654;8.932;2023-04-24T00:37:56;10.70;99.90
7174;DHT22;3628;48.654;8.932;2023-04-24T00:40:22;10.70;99.90
7174;DHT22;3628;48.654;8.932;2023-04-24T00:42:47;10.70;99.90
7174;DHT22;3628;48.654;8.932;2023-04-24T00:45:13;10.70;99.90
7174;DHT22;3628;48.654;8.932;2023-04-24T00:47:41;10.70;99.90
7174;DHT22;3628;48.654;8.932;2023-04-24T00:50:07;10.70;99.90
7174;DHT22;3628;48.654;8.932;2023-04-24T00:52:33;10.70;99.90
7174;DHT22;3628;48.654;8.932;2023-04-24T00:54:59;10.70;99.90
7174;DHT22;3628;48.654;8.932;2023-04-24T00:57:25;10.70;99.90
7174;DHT22;3628;48.654;8.932;2023-04-24T00:59:51;10.70;99.90
7174;DHT22;3628;48.654;8.932;2023-04-24T01:02:18;10.70;99.90
7174;DHT22;3628;48.654;8.932;2023-04-24T01:04:44;10.70;99.90
7174;DHT22;3628;48.654;8.932;2023-04-24T01:07:09;10.70;99.90
7174;DHT22;3628;48.654;8.932;2023-04-24T01:09:40;10.70;99.90
7174;DHT22;3628;48.654;8.932;2023-04-24T01:12:07;10.80;99.90
7174;DHT22;3628;48.654;8.932;2023-04-24T01:14:33;10.70;99.90
7174;DHT22;3628;48.654;8.932;2023-04-24T01:16:59;10.80;99.90
7174;DHT22;3628;48.654;8.932;2023-04-24T01:19:24;10.70;99.90
7174;DHT22;3628;48.654;8.932;2023-04-24T01:21:51;10.70;99.90
7174;DHT22;3628;48.654;8.932;2023-04-24T01:24:19;10.70;99.90
7174;DHT22;3628;48.654;8.932;2023-04-24T01:26:45;10.70;99.90
7174;DHT22;3628;48.654;8.932;2023-04-24T01:29:11;10.70;99.90
7174;DHT22;3628;48.654;8.932;2023-04-24T01:31:38;10.80;99.90
7174;DHT22;3628;48.654;8.932;2023-04-24T01:34:05;10.70;99.90
7174;DHT22;3628;48.654;8.932;2023-04-24T01:36:31;10.70;99.90
7174;DHT22;3628;48.654;8.932;2023-04-24T01:38:58;10.70;99.90
7174;DHT22;3628;48.654;8.932;2023-04-24T01:41:25;10.70;99.90
7174;DHT22;3628;48.654;8.932;2023-04-24T01:43:50;10.60;99.90
7174;DHT22;3628;48.654;8.932;2023-04-24T01:46:16;10.60;99.90
7174;DHT22;3628;48.654;8.932;2023-04-24T01:48:42;10.50;99.90
7174;DHT22;3628;48.654;8.932;2023-04-24T01:51:08;10.50;99.90
7174;DHT22;3628;48.654;8.932;2023-04-24T01:53:33;10.40;99.90
7174;DHT22;3628;48.654;8.932;2023-04-24T01:55:59;10.40;99.90
7174;DHT22;3628;48.654;8.932;2023-04-24T01:58:25;10.40;99.90
7174;DHT22;3628;48.654;8.932;2023-04-24T02:00:51;10.30;99.90
7174;DHT22;3628;48.654;8.932;2023-04-24T02:03:17;10.30;99.90
7174;DHT22;3628;48.654;8.932;2023-04-24T02:05:44;10.30;99.90
7174;DHT22;3628;48.654;8.932;2023-04-24T02:08:10;10.30;99.90
7174;DHT22;3628;48.654;8.932;2023-04-24T02:10:36;10.20;99.90
7174;DHT22;3628;48.654;8.932;2023-04-24T02:13:01;10.20;99.90
7174;DHT22;3628;48.654;8.932;2023-04-24T02:15:27;10.20;99.90
7174;DHT22;3628;48.654;8.932;2023-04-24T02:17:53;10.10;99.90
7174;DHT22;3628;48.654;8.932;2023-04-24T02:20:19;10.10;99.90
7174;DHT22;3628;48.654;8.932;2023-04-24T02:22:44;10.10;99.90
7174;DHT22;3628;48.654;8.932;2023-04-24T02:25:10;10.10;99.90
7174;DHT22;3628;48.654;8.932;2023-04-24T02:27:36;10.10;99.90
7174;DHT22;3628;48.654;8.932;2023-04-24T02:30:01;10.20;99.90
7174;DHT22;3628;48.654;8.932;2023-04-24T02:32:28;10.30;99.90
7174;DHT22;3628;48.654;8.932;2023-04-24T02:34:53;10.20;99.90
7174;DHT22;3628;48.654;8.932;2023-04-24T02:37:19;10.20;99.90
7174;DHT22;3628;48.654;8.932;2023-04-24T02:39:44;10.20;99.90
7174;DHT22;3628;48.654;8.932;2023-04-24T02:42:10;10.30;99.90
7174;DHT22;3628;48.654;8.932;2023-04-24T02:44:36;10.30;99.90
7174;DHT22;3628;48.654;8.932;2023-04-24T02:47:01;10.30;99.90
7174;DHT22;3628;48.654;8.932;2023-04-24T02:49:27;10.20;99.90
7174;DHT22;3628;48.654;8.932;2023-04-24T02:51:52;10.20;99.90
7174;DHT22;3628;48.654;8.932;2023-04-24T02:54:18;10.20;99.90
7174;DHT22;3628;48.654;8.932;2023-04-24T02:56:43;10.20;99.90
7174;DHT22;3628;48.654;8.932;2023-04-24T02:59:09;10.20;99.90
7174;DHT22;3628;48.654;8.932;2023-04-24T03:01:35;10.20;99.90
7174;DHT22;3628;48.654;8.932;2023-04-24T03:04:01;10.20;99.90
7174;DHT22;3628;48.654;8.932;2023-04-24T03:06:27;10.10;99.90
7174;DHT22;3628;48.654;8.932;2023-04-24T03:08:52;10.10;99.90
7174;DHT22;3628;48.654;8.932;2023-04-24T03:11:18;10.00;99.90
7174;DHT22;3628;48.654;8.932;2023-04-24T03:13:44;10.00;99.90
7174;DHT22;3628;48.654;8.932;2023-04-24T03:16:10;10.00;99.90
7174;DHT22;3628;48.654;8.932;2023-04-24T03:18:35;10.00;99.90
7174;DHT22;3628;48.654;8.932;2023-04-24T03:21:01;10.00;99.90
7174;DHT22;3628;48.654;8.932;2023-04-24T03:23:26;9.90;99.90
7174;DHT22;3628;48.654;8.932;2023-04-24T03:25:52;9.90;99.90
7174;DHT22;3628;48.654;8.932;2023-04-24T03:28:17;9.90;99.90
7174;DHT22;3628;48.654;8.932;2023-04-24T03:30:43;9.90;99.90
7174;DHT22;3628;48.654;8.932;2023-04-24T03:33:09;9.90;99.90
7174;DHT22;3628;48.654;8.932;2023-04-24T03:35:35;9.80;99.90
7174;DHT22;3628;48.654;8.932;2023-04-24T03:38:01;9.80;99.90
7174;DHT22;3628;48.654;8.932;2023-04-24T03:40:27;9.70;99.90
7174;DHT22;3628;48.654;8.932;2023-04-24T03:42:54;9.60;99.90
7174;DHT22;3628;48.654;8.932;2023-04-24T03:45:20;9.50;99.90
7174;DHT22;3628;48.654;8.932;2023-04-24T03:47:45;9.50;99.90
7174;DHT22;3628;48.654;8.932;2023-04-24T03:50:11;9.40;99.90
7174;DHT22;3628;48.654;8.932;2023-04-24T03:52:36;9.40;99.90
7174;DHT22;3628;48.654;8.932;2023-04-24T03:55:03;9.40;99.90
7174;DHT22;3628;48.654;8.932;2023-04-24T03:57:29;9.40;99.90
7174;DHT22;3628;48.654;8.932;2023-04-24T03:59:54;9.40;99.90
7174;DHT22;3628;48.654;8.932;2023-04-24T04:02:20;9.40;99.90
7174;DHT22;3628;48.654;8.932;2023-04-24T04:04:46;9.40;99.90
7174;DHT22;3628;48.654;8.932;2023-04-24T04:07:11;9.40;99.90
7174;DHT22;3628;48.654;8.932;2023-04-24T04:09:38;9.50;99.90
7174;DHT22;3628;48.654;8.932;2023-04-24T04:12:03;9.50;99.90
7174;DHT22;3628;48.654;8.932;2023-04-24T04:14:29;9.50;99.90
7174;DHT22;3628;48.654;8.932;2023-04-24T04:16:55;9.50;99.90
7174;DHT22;3628;48.654;8.932;2023-04-24T04:19:20;9.60;99.90
7174;DHT22;3628;48.654;8.932;2023-04-24T04:21:46;9.60;99.90
7174;DHT22;3628;48.654;8.932;2023-04-24T04:24:16;9.60;99.90
7174;DHT22;3628;48.654;8.932;2023-04-24T04:26:41;9.60;99.90
7174;DHT22;3628;48.654;8.932;2023-04-24T04:29:13;9.60;99.90
7174;DHT22;3628;48.654;8.932;2023-04-24T04:31:39;9.50;99.90
7174;DHT22;3628;48.654;8.932;2023-04-24T04:34:05;9.40;99.90
7174;DHT22;3628;48.654;8.932;2023-04-24T04:36:31;9.20;99.90
7174;DHT22;3628;48.654;8.932;2023-04-24T04:38:56;9.10;99.90
7174;DHT22;3628;48.654;8.932;2023-04-24T04:41:22;9.00;99.90
7174;DHT22;3628;48.654;8.932;2023-04-24T04:43:48;8.90;99.90
7174;DHT22;3628;48.654;8.932;2023-04-24T04:46:13;8.80;99.90
7174;DHT22;3628;48.654;8.932;2023-04-24T04:48:39;8.70;99.90
7174;DHT22;3628;48.654;8.932;2023-04-24T04:51:05;8.70;99.90
7174;DHT22;3628;48.654;8.932;2023-04-24T04:53:31;8.70;99.90
7174;DHT22;3628;48.654;8.932;2023-04-24T04:55:57;8.60;99.90
7174;DHT22;3628;48.654;8.932;2023-04-24T04:58:22;8.60;99.90
7174;DHT22;3628;48.654;8.932;2023-04-24T05:00:48;8.60;99.90
7174;DHT22;3628;48.654;8.932;2023-04-24T05:03:13;8.60;99.90
7174;DHT22;3628;48.654;8.932;2023-04-24T05:05:39;8.60;99.90
7174;DHT22;3628;48.654;8.932;2023-04-24T05:08:08;8.60;99.90
7174;DHT22;3628;48.654;8.932;2023-04-24T05:10:33;8.60;99.90
7174;DHT22;3628;48.654;8.932;2023-04-24T05:12:59;8.70;99.90
7174;DHT22;3628;48.654;8.932;2023-04-24T05:15:25;8.80;99.90
7174;DHT22;3628;48.654;8.932;2023-04-24T05:17:50;8.80;99.90
7174;DHT22;3628;48.654;8.932;2023-04-24T05:20:16;8.80;99.90
7174;DHT22;3628;48.654;8.932;2023-04-24T05:22:42;8.80;99.90
7174;DHT22;3628;48.654;8.932;2023-04-24T05:25:07;8.90;99.90
7174;DHT22;3628;48.654;8.932;2023-04-24T05:27:33;8.90;99.90
7174;DHT22;3628;48.654;8.932;2023-04-24T05:29:59;9.00;99.90
7174;DHT22;3628;48.654;8.932;2023-04-24T05:32:25;9.00;99.90
7174;DHT22;3628;48.654;8.932;2023-04-24T05:34:52;9.10;99.90
7174;DHT22;3628;48.654;8.932;2023-04-24T05:37:17;9.20;99.90
7174;DHT22;3628;48.654;8.932;2023-04-24T05:39:43;9.20;99.90
7174;DHT22;3628;48.654;8.932;2023-04-24T05:42:09;9.30;99.90
7174;DHT22;3628;48.654;8.932;2023-04-24T05:44:34;9.30;99.90
7174;DHT22;3628;48.654;8.932;2023-04-24T05:47:00;9.40;99.90
7174;DHT22;3628;48.654;8.932;2023-04-24T05:49:26;9.40;99.90
7174;DHT22;3628;48.654;8.932;2023-04-24T05:51:51;9.40;99.90
7174;DHT22;3628;48.654;8.932;2023-04-24T05:54:17;9.50;99.90
7174;DHT22;3628;48.654;8.932;2023-04-24T05:56:42;9.50;99.90
7174;DHT22;3628;48.654;8.932;2023-04-24T05:59:08;9.50;99.90
7174;DHT22;3628;48.654;8.932;2023-04-24T06:01:34;9.50;99.90
7174;DHT22;3628;48.654;8.932;2023-04-24T06:04:02;9.60;99.90
7174;DHT22;3628;48.654;8.932;2023-04-24T06:06:27;9.80;99.90
7174;DHT22;3628;48.654;8.932;2023-04-24T06:08:54;10.00;99.90
7174;DHT22;3628;48.654;8.932;2023-04-24T06:11:20;10.20;99.90
7174;DHT22;3628;48.654;8.932;2023-04-24T06:13:45;10.40;99.90
7174;DHT22;3628;48.654;8.932;2023-04-24T06:16:11;10.60;99.90
7174;DHT22;3628;48.654;8.932;2023-04-24T06:18:36;10.90;99.90
7174;DHT22;3628;48.654;8.932;2023-04-24T06:21:02;11.10;99.90
7174;DHT22;3628;48.654;8.932;2023-04-24T06:23:27;11.30;99.90
7174;DHT22;3628;48.654;8.932;2023-04-24T06:25:53;11.50;99.90
7174;DHT22;3628;48.654;8.932;2023-04-24T06:28:19;11.60;99.90
7174;DHT22;3628;48.654;8.932;2023-04-24T06:30:44;11.80;99.90
7174;DHT22;3628;48.654;8.932;2023-04-24T06:33:10;12.00;99.90
7174;DHT22;3628;48.654;8.932;2023-04-24T06:35:36;12.00;99.90
7174;DHT22;3628;48.654;8.932;2023-04-24T06:38:03;12.10;99.90
7174;DHT22;3628;48.654;8.932;2023-04-24T06:40:28;12.20;99.90
7174;DHT22;3628;48.654;8.932;2023-04-24T06:42:54;12.30;99.90
7174;DHT22;3628;48.654;8.932;2023-04-24T06:45:20;12.30;99.90
7174;DHT22;3628;48.654;8.932;2023-04-24T06:47:46;12.50;99.90
7174;DHT22;3628;48.654;8.932;2023-04-24T06:50:11;12.60;99.90
7174;DHT22;3628;48.654;8.932;2023-04-24T06:52:37;12.50;99.90
7174;DHT22;3628;48.654;8.932;2023-04-24T06:55:03;12.30;99.90
7174;DHT22;3628;48.654;8.932;2023-04-24T06:57:30;12.00;99.90
7174;DHT22;3628;48.654;8.932;2023-04-24T06:59:55;11.60;99.90
7174;DHT22;3628;48.654;8.932;2023-04-24T07:02:21;11.30;99.90
7174;DHT22;3628;48.654;8.932;2023-04-24T07:04:47;11.10;99.90
7174;DHT22;3628;48.654;8.932;2023-04-24T07:07:15;10.80;99.90
7174;DHT22;3628;48.654;8.932;2023-04-24T07:09:42;10.40;99.90
7174;DHT22;3628;48.654;8.932;2023-04-24T07:12:08;9.90;99.90
7174;DHT22;3628;48.654;8.932;2023-04-24T07:14:34;9.70;99.90
7174;DHT22;3628;48.654;8.932;2023-04-24T07:17:00;9.60;99.90
7174;DHT22;3628;48.654;8.932;2023-04-24T07:19:26;9.60;99.90
7174;DHT22;3628;48.654;8.932;2023-04-24T07:21:52;9.70;99.90
7174;DHT22;3628;48.654;8.932;2023-04-24T07:24:18;9.90;99.90
7174;DHT22;3628;48.654;8.932;2023-04-24T07:26:44;10.30;99.90
7174;DHT22;3628;48.654;8.932;2023-04-24T07:29:11;10.70;99.90
7174;DHT22;3628;48.654;8.932;2023-04-24T07:31:37;11.00;99.90
7174;DHT22;3628;48.654;8.932;2023-04-24T07:34:03;11.40;99.90
7174;DHT22;3628;48.654;8.932;2023-04-24T07:36:28;11.60;99.90
7174;DHT22;3628;48.654;8.932;2023-04-24T07:38:54;11.60;99.90
7174;DHT22;3628;48.654;8.932;2023-04-24T07:41:21;11.70;99.90
7174;DHT22;3628;48.654;8.932;2023-04-24T07:43:46;11.60;99.90
7174;DHT22;3628;48.654;8.932;2023-04-24T07:46:12;11.60;99.90
7174;DHT22;3628;48.654;8.932;2023-04-24T07:48:37;11.50;99.90
7174;DHT22;3628;48.654;8.932;2023-04-24T07:51:03;11.40;99.90
7174;DHT22;3628;48.654;8.932;2023-04-24T07:53:29;11.40;99.90
7174;DHT22;3628;48.654;8.932;2023-04-24T07:55:56;11.50;99.90
7174;DHT22;3628;48.654;8.932;2023-04-24T07:58:21;11.50;99.90
7174;DHT22;3628;48.654;8.932;2023-04-24T08:00:47;11.40;99.90
7174;DHT22;3628;48.654;8.932;2023-04-24T08:03:13;11.30;99.90
7174;DHT22;3628;48.654;8.932;2023-04-24T08:05:38;11.30;99.90
7174;DHT22;3628;48.654;8.932;2023-04-24T08:08:04;11.40;99.90
7174;DHT22;3628;48.654;8.932;2023-04-24T08:10:30;11.50;99.90
7174;DHT22;3628;48.654;8.932;2023-04-24T08:12:55;11.50;99.90
7174;DHT22;3628;48.654;8.932;2023-04-24T08:15:21;11.50;99.90
7174;DHT22;3628;48.654;8.932;2023-04-24T08:17:47;11.60;99.90
7174;DHT22;3628;48.654;8.932;2023-04-24T08:20:12;11.80;99.90
7174;DHT22;3628;48.654;8.932;2023-04-24T08:22:41;11.90;99.90
7174;DHT22;3628;48.654;8.932;2023-04-24T08:25:08;11.90;99.90
7174;DHT22;3628;48.654;8.932;2023-04-24T08:27:34;12.10;99.90
7174;DHT22;3628;48.654;8.932;2023-04-24T08:29:59;12.00;99.90
7174;DHT22;3628;48.654;8.932;2023-04-24T08:32:25;11.80;99.90
7174;DHT22;3628;48.654;8.932;2023-04-24T08:34:54;11.60;99.90
7174;DHT22;3628;48.654;8.932;2023-04-24T08:37:22;11.50;99.90
7174;DHT22;3628;48.654;8.932;2023-04-24T08:39:48;11.40;99.90
7174;DHT22;3628;48.654;8.932;2023-04-24T08:42:14;11.30;99.90
7174;DHT22;3628;48.654;8.932;2023-04-24T08:44:41;11.40;99.90
7174;DHT22;3628;48.654;8.932;2023-04-24T08:47:07;11.30;99.90
7174;DHT22;3628;48.654;8.932;2023-04-24T08:49:33;11.30;99.90
7174;DHT22;3628;48.654;8.932;2023-04-24T08:52:01;11.30;99.90
7174;DHT22;3628;48.654;8.932;2023-04-24T08:54:28;11.20;99.90
7174;DHT22;3628;48.654;8.932;2023-04-24T08:56:58;11.30;99.90
7174;DHT22;3628;48.654;8.932;2023-04-24T08:59:35;11.50;99.90
7174;DHT22;3628;48.654;8.932;2023-04-24T09:02:02;11.80;99.90
7174;DHT22;3628;48.654;8.932;2023-04-24T09:04:29;12.00;99.90
7174;DHT22;3628;48.654;8.932;2023-04-24T09:06:56;12.30;99.90
7174;DHT22;3628;48.654;8.932;2023-04-24T09:09:23;12.40;99.90
7174;DHT22;3628;48.654;8.932;2023-04-24T09:11:50;12.30;99.90
7174;DHT22;3628;48.654;8.932;2023-04-24T09:14:17;12.20;99.90
7174;DHT22;3628;48.654;8.932;2023-04-24T09:16:43;12.20;99.90
7174;DHT22;3628;48.654;8.932;2023-04-24T09:19:08;11.90;99.90
7174;DHT22;3628;48.654;8.932;2023-04-24T09:21:35;11.80;99.90
7174;DHT22;3628;48.654;8.932;2023-04-24T09:24:04;11.80;99.90
7174;DHT22;3628;48.654;8.932;2023-04-24T09:26:31;12.00;99.90
7174;DHT22;3628;48.654;8.932;2023-04-24T09:28:58;12.20;99.90
7174;DHT22;3628;48.654;8.932;2023-04-24T09:31:23;12.30;99.90
7174;DHT22;3628;48.654;8.932;2023-04-24T09:33:57;12.40;99.90
7174;DHT22;3628;48.654;8.932;2023-04-24T09:36:31;12.80;99.90
7174;DHT22;3628;48.654;8.932;2023-04-24T09:39:03;13.10;99.90
7174;DHT22;3628;48.654;8.932;2023-04-24T09:41:32;13.10;99.90
7174;DHT22;3628;48.654;8.932;2023-04-24T09:44:10;12.90;99.90
7174;DHT22;3628;48.654;8.932;2023-04-24T09:46:36;13.00;99.90
7174;DHT22;3628;48.654;8.932;2023-04-24T09:49:31;12.90;99.90
7174;DHT22;3628;48.654;8.932;2023-04-24T09:52:05;13.30;99.90
7174;DHT22;3628;48.654;8.932;2023-04-24T09:54:31;13.40;99.90
7174;DHT22;3628;48.654;8.932;2023-04-24T09:56:57;13.40;99.90
7174;DHT22;3628;48.654;8.932;2023-04-24T09:59:22;13.40;99.90
7174;DHT22;3628;48.654;8.932;2023-04-24T10:01:48;13.20;99.90
7174;DHT22;3628;48.654;8.932;2023-04-24T10:04:22;12.80;99.90
7174;DHT22;3628;48.654;8.932;2023-04-24T10:06:50;12.80;99.90
7174;DHT22;3628;48.654;8.932;2023-04-24T10:09:18;12.50;99.90
7174;DHT22;3628;48.654;8.932;2023-04-24T10:11:45;12.60;99.90
7174;DHT22;3628;48.654;8.932;2023-04-24T10:14:15;12.60;99.90
7174;DHT22;3628;48.654;8.932;2023-04-24T10:16:42;12.50;99.90
7174;DHT22;3628;48.654;8.932;2023-04-24T10:19:08;12.50;99.90
7174;DHT22;3628;48.654;8.932;2023-04-24T10:21:34;12.60;99.90
7174;DHT22;3628;48.654;8.932;2023-04-24T10:24:00;12.40;99.90
7174;DHT22;3628;48.654;8.932;2023-04-24T10:26:29;12.20;99.90
7174;DHT22;3628;48.654;8.932;2023-04-24T10:28:57;12.20;99.90
7174;DHT22;3628;48.654;8.932;2023-04-24T10:31:23;12.40;99.90
7174;DHT22;3628;48.654;8.932;2023-04-24T10:33:50;12.30;99.90
7174;DHT22;3628;48.654;8.932;2023-04-24T10:36:17;12.30;99.90
7174;DHT22;3628;48.654;8.932;2023-04-24T10:38:43;12.20;99.90
7174;DHT22;3628;48.654;8.932;2023-04-24T10:41:12;12.30;99.90
7174;DHT22;3628;48.654;8.932;2023-04-24T10:43:45;12.50;99.90
7174;DHT22;3628;48.654;8.932;2023-04-24T10:46:10;12.60;99.90
7174;DHT22;3628;48.654;8.932;2023-04-24T10:48:52;12.30;99.90
7174;DHT22;3628;48.654;8.932;2023-04-24T10:51:22;11.90;99.90
7174;DHT22;3628;48.654;8.932;2023-04-24T10:53:52;12.00;99.90
7174;DHT22;3628;48.654;8.932;2023-04-24T10:56:18;12.10;99.90
7174;DHT22;3628;48.654;8.932;2023-04-24T10:58:50;12.30;99.90
7174;DHT22;3628;48.654;8.932;2023-04-24T11:01:32;12.50;99.90
7174;DHT22;3628;48.654;8.932;2023-04-24T11:04:03;12.60;99.90
7174;DHT22;3628;48.654;8.932;2023-04-24T11:06:36;12.50;99.90
7174;DHT22;3628;48.654;8.932;2023-04-24T11:09:09;12.70;99.90
7174;DHT22;3628;48.654;8.932;2023-04-24T11:11:38;13.00;99.90
7174;DHT22;3628;48.654;8.932;2023-04-24T11:14:09;12.80;99.90
7174;DHT22;3628;48.654;8.932;2023-04-24T11:19:21;12.60;99.90
7174;DHT22;3628;48.654;8.932;2023-04-24T11:21:55;12.40;99.90
7174;DHT22;3628;48.654;8.932;2023-04-24T11:24:29;12.10;99.90
7174;DHT22;3628;48.654;8.932;2023-04-24T11:35:10;12.40;99.90
7174;DHT22;3628;48.654;8.932;2023-04-24T11:37:52;12.50;99.90
7174;DHT22;3628;48.654;8.932;2023-04-24T11:40:19;12.50;99.90
7174;DHT22;3628;48.654;8.932;2023-04-24T11:42:52;12.50;99.90
7174;DHT22;3628;48.654;8.932;2023-04-24T11:45:25;12.30;99.90
7174;DHT22;3628;48.654;8.932;2023-04-24T11:47:51;12.30;99.90
7174;DHT22;3628;48.654;8.932;2023-04-24T11:50:18;12.60;99.90
7174;DHT22;3628;48.654;8.932;2023-04-24T11:52:46;12.50;99.90
7174;DHT22;3628;48.654;8.932;2023-04-24T11:57:49;12.10;99.90
7174;DHT22;3628;48.654;8.932;2023-04-24T12:02:49;11.80;99.90
7174;DHT22;3628;48.654;8.932;2023-04-24T12:05:26;11.90;99.90
7174;DHT22;3628;48.654;8.932;2023-04-24T12:07:52;11.90;99.90
7174;DHT22;3628;48.654;8.932;2023-04-24T12:10:22;12.00;99.90
7174;DHT22;3628;48.654;8.932;2023-04-24T12:12:49;12.00;99.90
7174;DHT22;3628;48.654;8.932;2023-04-24T12:15:17;12.00;99.90
7174;DHT22;3628;48.654;8.932;2023-04-24T12:17:43;12.20;99.90
7174;DHT22;3628;48.654;8.932;2023-04-24T12:20:09;12.60;99.90
7174;DHT22;3628;48.654;8.932;2023-04-24T12:22:50;12.60;99.90
7174;DHT22;3628;48.654;8.932;2023-04-24T12:25:17;12.80;99.90
7174;DHT22;3628;48.654;8.932;2023-04-24T12:27:44;12.80;99.90
7174;DHT22;3628;48.654;8.932;2023-04-24T12:30:15;12.90;99.90
7174;DHT22;3628;48.654;8.932;2023-04-24T12:32:50;12.60;99.90
7174;DHT22;3628;48.654;8.932;2023-04-24T12:35:21;12.70;99.90
7174;DHT22;3628;48.654;8.932;2023-04-24T12:37:47;13.00;99.90
7174;DHT22;3628;48.654;8.932;2023-04-24T12:40:14;13.20;99.90
7174;DHT22;3628;48.654;8.932;2023-04-24T12:42:48;13.60;99.90
7174;DHT22;3628;48.654;8.932;2023-04-24T12:45:15;14.00;99.90
7174;DHT22;3628;48.654;8.932;2023-04-24T12:47:42;13.70;99.90
7174;DHT22;3628;48.654;8.932;2023-04-24T12:50:10;13.50;99.90
7174;DHT22;3628;48.654;8.932;2023-04-24T12:52:36;13.30;99.90
7174;DHT22;3628;48.654;8.932;2023-04-24T12:55:02;13.00;99.90
7174;DHT22;3628;48.654;8.932;2023-04-24T12:57:29;13.00;99.90
7174;DHT22;3628;48.654;8.932;2023-04-24T12:59:57;12.80;99.90
7174;DHT22;3628;48.654;8.932;2023-04-24T13:02:24;12.60;99.90
7174;DHT22;3628;48.654;8.932;2023-04-24T13:04:51;12.50;99.90
7174;DHT22;3628;48.654;8.932;2023-04-24T13:07:17;12.30;99.90
7174;DHT22;3628;48.654;8.932;2023-04-24T13:09:43;12.40;99.90
7174;DHT22;3628;48.654;8.932;2023-04-24T13:12:10;12.40;99.90
7174;DHT22;3628;48.654;8.932;2023-04-24T13:14:37;12.10;99.90
7174;DHT22;3628;48.654;8.932;2023-04-24T13:17:03;12.00;99.90
7174;DHT22;3628;48.654;8.932;2023-04-24T13:19:29;12.00;99.90
7174;DHT22;3628;48.654;8.932;2023-04-24T13:21:56;11.70;99.90
7174;DHT22;3628;48.654;8.932;2023-04-24T13:24:23;11.70;99.90
7174;DHT22;3628;48.654;8.932;2023-04-24T13:26:54;11.70;99.90
7174;DHT22;3628;48.654;8.932;2023-04-24T13:29:22;11.60;99.90
7174;DHT22;3628;48.654;8.932;2023-04-24T13:31:50;11.30;99.90
7174;DHT22;3628;48.654;8.932;2023-04-24T13:34:20;11.20;99.90
7174;DHT22;3628;48.654;8.932;2023-04-24T13:36:45;11.20;99.90
7174;DHT22;3628;48.654;8.932;2023-04-24T13:39:11;11.30;99.90
7174;DHT22;3628;48.654;8.932;2023-04-24T13:41:37;11.40;99.90
7174;DHT22;3628;48.654;8.932;2023-04-24T13:44:03;11.60;99.90
7174;DHT22;3628;48.654;8.932;2023-04-24T13:46:29;11.60;99.90
7174;DHT22;3628;48.654;8.932;2023-04-24T13:48:55;11.60;99.90
7174;DHT22;3628;48.654;8.932;2023-04-24T13:51:22;11.70;99.90
7174;DHT22;3628;48.654;8.932;2023-04-24T13:53:48;11.60;99.90
7174;DHT22;3628;48.654;8.932;2023-04-24T13:56:13;11.50;99.90
7174;DHT22;3628;48.654;8.932;2023-04-24T13:58:39;11.40;99.90
7174;DHT22;3628;48.654;8.932;2023-04-24T14:01:05;11.40;99.90
7174;DHT22;3628;48.654;8.932;2023-04-24T14:03:30;11.30;99.90
7174;DHT22;3628;48.654;8.932;2023-04-24T14:05:56;11.20;99.90
7174;DHT22;3628;48.654;8.932;2023-04-24T14:08:22;11.00;99.90
7174;DHT22;3628;48.654;8.932;2023-04-24T14:10:48;10.90;99.90
7174;DHT22;3628;48.654;8.932;2023-04-24T14:13:14;10.80;99.90
7174;DHT22;3628;48.654;8.932;2023-04-24T14:15:40;10.80;99.90
7174;DHT22;3628;48.654;8.932;2023-04-24T14:18:05;10.90;99.90
7174;DHT22;3628;48.654;8.932;2023-04-24T14:20:31;11.00;99.90
7174;DHT22;3628;48.654;8.932;2023-04-24T14:22:57;11.20;99.90
7174;DHT22;3628;48.654;8.932;2023-04-24T14:25:25;11.30;99.90
7174;DHT22;3628;48.654;8.932;2023-04-24T14:27:51;11.30;99.90
7174;DHT22;3628;48.654;8.932;2023-04-24T14:30:17;11.30;99.90
7174;DHT22;3628;48.654;8.932;2023-04-24T14:32:43;11.40;99.90
7174;DHT22;3628;48.654;8.932;2023-04-24T14:35:09;11.50;99.90
7174;DHT22;3628;48.654;8.932;2023-04-24T14:37:34;11.60;99.90
7174;DHT22;3628;48.654;8.932;2023-04-24T14:40:01;11.60;99.90
7174;DHT22;3628;48.654;8.932;2023-04-24T14:42:27;11.80;99.90
7174;DHT22;3628;48.654;8.932;2023-04-24T14:44:54;11.90;99.90
7174;DHT22;3628;48.654;8.932;2023-04-24T14:47:20;11.80;99.90
7174;DHT22;3628;48.654;8.932;2023-04-24T14:49:47;11.80;99.90
7174;DHT22;3628;48.654;8.932;2023-04-24T14:52:13;11.80;99.90
7174;DHT22;3628;48.654;8.932;2023-04-24T14:54:39;11.70;99.90
7174;DHT22;3628;48.654;8.932;2023-04-24T14:57:04;11.60;99.90
7174;DHT22;3628;48.654;8.932;2023-04-24T14:59:30;11.50;99.90
7174;DHT22;3628;48.654;8.932;2023-04-24T15:01:57;11.30;99.90
7174;DHT22;3628;48.654;8.932;2023-04-24T15:04:24;11.30;99.90
7174;DHT22;3628;48.654;8.932;2023-04-24T15:06:51;11.10;99.90
7174;DHT22;3628;48.654;8.932;2023-04-24T15:09:16;11.10;99.90
7174;DHT22;3628;48.654;8.932;2023-04-24T15:11:42;11.10;99.90
7174;DHT22;3628;48.654;8.932;2023-04-24T15:14:08;11.10;99.90
7174;DHT22;3628;48.654;8.932;2023-04-24T15:16:33;11.10;99.90
7174;DHT22;3628;48.654;8.932;2023-04-24T15:18:59;11.10;99.90
7174;DHT22;3628;48.654;8.932;2023-04-24T15:21:24;11.20;99.90
7174;DHT22;3628;48.654;8.932;2023-04-24T15:23:51;11.20;99.90
7174;DHT22;3628;48.654;8.932;2023-04-24T15:26:17;11.20;99.90
7174;DHT22;3628;48.654;8.932;2023-04-24T15:28:42;11.20;99.90
7174;DHT22;3628;48.654;8.932;2023-04-24T15:31:08;11.30;99.90
7174;DHT22;3628;48.654;8.932;2023-04-24T15:33:33;11.30;99.90
7174;DHT22;3628;48.654;8.932;2023-04-24T15:35:59;11.40;99.90
7174;DHT22;3628;48.654;8.932;2023-04-24T15:38:25;11.40;99.90
7174;DHT22;3628;48.654;8.932;2023-04-24T15:40:50;11.50;99.90
7174;DHT22;3628;48.654;8.932;2023-04-24T15:43:16;11.60;99.90
7174;DHT22;3628;48.654;8.932;2023-04-24T15:45:43;11.70;99.90
7174;DHT22;3628;48.654;8.932;2023-04-24T15:48:08;11.80;99.90
7174;DHT22;3628;48.654;8.932;2023-04-24T15:50:34;12.00;99.90
7174;DHT22;3628;48.654;8.932;2023-04-24T15:53:00;12.30;99.90
7174;DHT22;3628;48.654;8.932;2023-04-24T15:55:26;12.60;99.90
7174;DHT22;3628;48.654;8.932;2023-04-24T15:57:52;12.70;99.90
7174;DHT22;3628;48.654;8.932;2023-04-24T16:00:17;12.80;99.90
7174;DHT22;3628;48.654;8.932;2023-04-24T16:02:43;12.60;99.90
7174;DHT22;3628;48.654;8.932;2023-04-24T16:05:09;12.60;99.90
7174;DHT22;3628;48.654;8.932;2023-04-24T16:07:37;12.80;99.90
7174;DHT22;3628;48.654;8.932;2023-04-24T16:10:03;12.70;99.90
7174;DHT22;3628;48.654;8.932;2023-04-24T16:12:28;12.80;99.90
7174;DHT22;3628;48.654;8.932;2023-04-24T16:14:54;12.70;99.90
7174;DHT22;3628;48.654;8.932;2023-04-24T16:17:20;12.70;99.90